Time;durP1;ratioP1;P1;durP2;ratioP2;P2;SDS_P1;SDS_P2;PMS_P1;PMS_P2;Temp;Humidity;BMP_temperature;BMP_pressure;BME280_temperature;BME280_humidity;BME280_pressure;Samples;Min_cycle;Max_cycle;Signal;HPM_P1;HPM_P2
2022/11/19 00:00:44;;;;;;;2.10;1.10;;;12.40;39.00;;;;;;5050471;28;20266;-75
2022/11/19 00:03:14;;;;;;;2.20;1.20;;;12.40;41.00;;;;;;5050569;28;20434;-75
2022/11/19 00:05:41;;;;;;;2.13;1.10;;;12.20;40.60;;;;;;5046961;28;20275;-75
2022/11/19 00:08:07;;;;;;;2.10;1.10;;;12.40;42.80;;;;;;5047647;28;20203;-75
2022/11/19 00:10:37;;;;;;;2.13;1.20;;;12.40;39.40;;;;;;5047512;28;20245;-75
2022/11/19 00:13:03;;;;;;;2.10;1.10;;;12.50;42.40;;;;;;5049056;28;20196;-72
2022/11/19 00:15:29;;;;;;;2.10;1.10;;;12.80;39.60;;;;;;5046278;28;20466;-72
2022/11/19 00:17:59;;;;;;;2.10;1.10;;;13.10;40.70;;;;;;5049354;28;20540;-72
2022/11/19 00:20:25;;;;;;;2.20;1.30;;;12.80;40.40;;;;;;5050662;28;20180;-72
2022/11/19 00:22:52;;;;;;;4.30;1.87;;;12.60;41.30;;;;;;5050242;28;20674;-72
2022/11/19 00:25:18;;;;;;;2.30;1.30;;;12.60;44.00;;;;;;5047533;28;20966;-72
2022/11/19 00:27:44;;;;;;;2.10;1.10;;;12.40;41.70;;;;;;5050342;28;20450;-72
2022/11/19 00:30:10;;;;;;;2.20;1.30;;;12.40;43.20;;;;;;5045365;28;20492;-72
2022/11/19 00:32:36;;;;;;;2.10;1.20;;;12.40;44.70;;;;;;5044107;28;20187;-72
2022/11/19 00:35:02;;;;;;;2.03;1.10;;;12.60;43.90;;;;;;5043314;28;20463;-72
2022/11/19 00:37:28;;;;;;;2.05;1.10;;;12.60;44.00;;;;;;5038748;28;20210;-72
2022/11/19 00:39:53;;;;;;;2.10;1.20;;;12.60;43.90;;;;;;5048648;28;20286;-72
2022/11/19 00:42:20;;;;;;;2.20;1.30;;;12.50;43.90;;;;;;5046299;28;20183;-72
2022/11/19 00:44:45;;;;;;;2.10;1.23;;;12.40;43.00;;;;;;5048830;28;20718;-72
2022/11/19 00:47:11;;;;;;;2.00;1.30;;;12.70;43.80;;;;;;5049201;28;20553;-71
2022/11/19 00:49:37;;;;;;;2.50;1.53;;;12.60;41.90;;;;;;5047608;28;20203;-72
2022/11/19 00:52:02;;;;;;;2.20;1.30;;;12.50;41.30;;;;;;5052461;28;20734;-72
2022/11/19 00:54:28;;;;;;;2.50;1.30;;;11.80;43.40;;;;;;5048622;28;20207;-72
2022/11/19 00:56:54;;;;;;;1.97;1.03;;;11.90;43.70;;;;;;5054052;28;20214;-72
2022/11/19 00:59:19;;;;;;;2.40;1.50;;;12.10;45.10;;;;;;5053449;28;20172;-72
2022/11/19 01:01:45;;;;;;;2.10;1.30;;;12.10;41.20;;;;;;5038215;28;20191;-74
2022/11/19 01:04:11;;;;;;;2.07;1.10;;;11.70;42.50;;;;;;5052433;28;20263;-74
2022/11/19 01:06:36;;;;;;;2.00;1.10;;;12.10;44.20;;;;;;5054228;28;20604;-75
2022/11/19 01:09:03;;;;;;;2.20;1.17;;;12.20;41.00;;;;;;5048764;28;20632;-75
2022/11/19 01:11:32;;;;;;;2.03;1.10;;;12.40;40.60;;;;;;5038362;28;20242;-72
2022/11/19 01:13:59;;;;;;;2.00;1.10;;;12.70;39.70;;;;;;5043586;28;20204;-72
2022/11/19 01:16:36;;;;;;;2.00;1.10;;;12.50;38.80;;;;;;5051003;28;20199;-72
2022/11/19 01:19:04;;;;;;;2.15;1.20;;;11.90;39.90;;;;;;5054721;28;20217;-74
2022/11/19 01:21:32;;;;;;;2.03;1.10;;;11.70;41.00;;;;;;5045113;28;20177;-74
2022/11/19 01:23:58;;;;;;;2.10;1.10;;;11.60;40.80;;;;;;5041688;28;20180;-74
2022/11/19 01:26:24;;;;;;;2.05;1.10;;;11.30;42.70;;;;;;5050089;28;20278;-74
2022/11/19 01:28:50;;;;;;;2.05;1.10;;;10.70;45.20;;;;;;5054584;28;20644;-74
2022/11/19 01:31:24;;;;;;;2.10;1.10;;;10.80;44.00;;;;;;5047708;28;20187;-75
2022/11/19 01:33:50;;;;;;;2.10;1.20;;;11.10;44.30;;;;;;5044760;28;20184;-75
2022/11/19 01:36:19;;;;;;;3.13;1.60;;;11.40;42.20;;;;;;5046434;28;20208;-75
2022/11/19 01:38:49;;;;;;;2.10;1.10;;;11.70;40.90;;;;;;5048158;28;20540;-75
2022/11/19 01:41:18;;;;;;;2.08;1.10;;;11.90;42.20;;;;;;5053243;28;20659;-75
2022/11/19 01:43:48;;;;;;;2.13;1.13;;;11.10;42.80;;;;;;5045405;28;20262;-75
2022/11/19 01:46:19;;;;;;;2.13;1.10;;;11.00;44.40;;;;;;5050644;28;20516;-75
2022/11/19 01:49:00;;;;;;;2.10;1.00;;;11.20;44.00;;;;;;5052275;28;20179;-75
2022/11/19 01:51:31;;;;;;;2.08;1.10;;;11.20;44.00;;;;;;5050234;28;20176;-75
2022/11/19 01:54:00;;;;;;;2.15;1.10;;;10.90;44.70;;;;;;5045314;28;20181;-75
2022/11/19 01:56:28;;;;;;;2.20;1.20;;;10.60;46.40;;;;;;5051515;28;20192;-74
2022/11/19 01:59:08;;;;;;;2.00;1.05;;;10.70;46.30;;;;;;5049562;28;20183;-74
2022/11/19 02:01:34;;;;;;;2.30;1.20;;;11.10;45.90;;;;;;5043026;28;20181;-74
2022/11/19 02:04:02;;;;;;;2.10;1.10;;;11.30;45.00;;;;;;5048076;28;20255;-74
2022/11/19 02:06:29;;;;;;;2.00;1.08;;;11.60;43.50;;;;;;5041334;28;20279;-74
2022/11/19 02:08:55;;;;;;;2.53;1.52;;;11.90;44.40;;;;;;5048691;28;20203;-74
2022/11/19 02:11:30;;;;;;;2.10;1.10;;;12.30;43.30;;;;;;5049356;28;20169;-75
2022/11/19 02:14:13;;;;;;;2.00;1.10;;;12.10;42.40;;;;;;5046154;28;20204;-75
2022/11/19 02:16:42;;;;;;;2.10;1.10;;;12.20;42.80;;;;;;5046930;28;20205;-75
2022/11/19 02:19:16;;;;;;;2.00;1.10;;;12.20;43.20;;;;;;5049822;28;20172;-75
2022/11/19 02:22:00;;;;;;;2.05;1.10;;;12.20;42.00;;;;;;5052786;28;20179;-75
2022/11/19 02:24:55;;;;;;;2.53;1.33;;;12.30;42.10;;;;;;5047326;28;20310;-75
2022/11/19 02:27:35;;;;;;;2.00;1.10;;;12.10;42.60;;;;;;5013236;28;20592;-75
2022/11/19 02:30:16;;;;;;;2.00;1.10;;;12.10;42.80;;;;;;5014529;28;20191;-75
2022/11/19 02:33:12;;;;;;;2.20;1.25;;;12.10;43.00;;;;;;5018806;28;20188;-75
2022/11/19 02:35:47;;;;;;;2.00;1.10;;;11.70;42.60;;;;;;5015654;28;20201;-75
2022/11/19 02:38:31;;;;;;;2.10;1.20;;;11.80;43.30;;;;;;5008754;28;20206;-75
2022/11/19 02:41:32;;;;;;;2.05;1.20;;;11.80;42.70;;;;;;5013071;28;20791;-75
2022/11/19 02:44:57;;;;;;;2.05;1.20;;;11.40;44.00;;;;;;5011530;28;20666;-75
2022/11/19 02:46:45;;;;;;;2.00;1.10;;;11.50;43.90;;;;;;5010743;28;20731;-75
2022/11/19 02:49:11;;;;;;;2.08;1.10;;;11.40;44.00;;;;;;5015977;28;20200;-75
2022/11/19 02:51:37;;;;;;;2.00;1.10;;;11.40;44.90;;;;;;5005225;28;20706;-75
2022/11/19 02:54:03;;;;;;;2.20;1.30;;;11.00;46.20;;;;;;5007941;28;20224;-75
2022/11/19 02:56:50;;;;;;;2.10;1.20;;;10.80;48.00;;;;;;5028051;28;20234;-75
2022/11/19 03:04:54;;;;;;;2.00;1.10;;;12.10;41.80;;;;;;5045390;28;20211;-75
2022/11/19 03:07:20;;;;;;;2.10;1.20;;;11.50;44.10;;;;;;5051615;28;20214;-75
2022/11/19 03:09:56;;;;;;;1.98;1.10;;;11.30;43.40;;;;;;5051392;28;20593;-75
2022/11/19 03:12:41;;;;;;;2.00;1.10;;;10.80;46.10;;;;;;5044349;28;20605;-75
2022/11/19 03:18:24;;;;;;;2.00;1.15;;;10.80;46.20;;;;;;5044022;28;20214;-74
2022/11/19 03:21:00;;;;;;;2.00;1.23;;;10.50;47.40;;;;;;5051641;28;20184;-74
2022/11/19 03:23:32;;;;;;;2.10;1.10;;;10.60;47.70;;;;;;5046079;28;20218;-74
2022/11/19 03:26:05;;;;;;;2.05;1.23;;;10.90;46.50;;;;;;5045882;28;20596;-75
2022/11/19 03:28:35;;;;;;;2.00;1.08;;;10.20;49.20;;;;;;5050010;28;20211;-75
2022/11/19 03:31:02;;;;;;;2.08;1.20;;;10.60;48.40;;;;;;5050705;28;20175;-75
2022/11/19 03:33:48;;;;;;;2.10;1.13;;;10.60;48.00;;;;;;5042165;28;20541;-75
2022/11/19 03:36:19;;;;;;;1.98;1.20;;;10.40;48.90;;;;;;5045013;28;20663;-74
2022/11/19 03:38:50;;;;;;;2.10;1.20;;;10.50;49.00;;;;;;5052151;28;20708;-75
2022/11/19 03:41:18;;;;;;;2.00;1.10;;;10.70;49.30;;;;;;5049949;28;20178;-75
2022/11/19 03:43:49;;;;;;;2.00;1.10;;;10.80;49.30;;;;;;5046029;28;20193;-75
2022/11/19 03:46:17;;;;;;;2.00;1.20;;;11.30;47.80;;;;;;5046964;28;20187;-75
2022/11/19 03:48:49;;;;;;;1.90;1.00;;;11.00;47.00;;;;;;5047454;28;20191;-75
2022/11/19 03:51:24;;;;;;;2.10;1.25;;;10.60;50.50;;;;;;5043593;28;20200;-75
2022/11/19 03:53:50;;;;;;;2.00;1.20;;;11.10;48.80;;;;;;5051052;28;20265;-75
2022/11/19 03:56:20;;;;;;;2.00;1.10;;;11.40;46.90;;;;;;5048924;28;20317;-75
2022/11/19 03:58:47;;;;;;;2.00;1.10;;;11.70;46.40;;;;;;5049101;28;20549;-75
2022/11/19 04:01:13;;;;;;;2.00;1.20;;;12.00;45.50;;;;;;5050591;28;20192;-75
2022/11/19 04:03:39;;;;;;;1.90;1.10;;;12.20;45.80;;;;;;5050714;28;20194;-72
2022/11/19 04:06:05;;;;;;;2.20;1.43;;;12.30;43.90;;;;;;5049236;28;20278;-72
2022/11/19 04:08:31;;;;;;;1.92;1.10;;;12.20;44.50;;;;;;5043976;28;20445;-72
2022/11/19 04:11:00;;;;;;;1.97;1.10;;;12.20;44.00;;;;;;5049440;28;20190;-72
2022/11/19 04:13:25;;;;;;;2.03;1.20;;;12.40;44.70;;;;;;5051258;28;20668;-72
2022/11/19 04:15:51;;;;;;;1.97;1.10;;;12.20;44.20;;;;;;5050761;28;20242;-72
2022/11/19 04:18:17;;;;;;;2.10;1.20;;;12.20;43.70;;;;;;5036758;28;20214;-72
2022/11/19 04:20:45;;;;;;;2.00;1.10;;;12.30;43.70;;;;;;5049942;28;20215;-72
2022/11/19 04:23:10;;;;;;;2.00;1.27;;;12.20;43.10;;;;;;5044111;28;20188;-72
2022/11/19 04:25:36;;;;;;;1.97;1.10;;;12.10;43.20;;;;;;5051207;28;20217;-72
2022/11/19 04:28:02;;;;;;;1.93;1.10;;;11.80;43.20;;;;;;5049199;28;20199;-72
2022/11/19 04:30:28;;;;;;;2.00;1.10;;;11.90;43.30;;;;;;5046118;28;20448;-72
2022/11/19 04:32:54;;;;;;;2.00;1.20;;;12.00;42.30;;;;;;5049097;28;20184;-72
2022/11/19 04:35:20;;;;;;;2.00;1.20;;;12.10;43.00;;;;;;5050152;28;20219;-72
2022/11/19 04:37:47;;;;;;;1.92;1.10;;;12.00;42.10;;;;;;5050272;28;20738;-72
2022/11/19 04:40:13;;;;;;;2.10;1.20;;;11.70;44.40;;;;;;5040745;28;20183;-72
2022/11/19 04:42:38;;;;;;;1.98;1.10;;;11.80;43.10;;;;;;5048705;28;20184;-72
2022/11/19 04:45:04;;;;;;;2.03;1.20;;;11.70;43.30;;;;;;5051199;28;20191;-72
2022/11/19 04:47:30;;;;;;;1.90;1.00;;;11.70;43.50;;;;;;5040238;28;20685;-74
2022/11/19 04:49:56;;;;;;;2.10;1.20;;;11.60;43.80;;;;;;5049449;28;20272;-75
2022/11/19 04:52:21;;;;;;;2.00;1.13;;;11.40;43.30;;;;;;5044980;28;20268;-74
2022/11/19 04:54:47;;;;;;;1.93;1.10;;;11.50;44.50;;;;;;5046574;28;20199;-74
2022/11/19 04:57:13;;;;;;;1.90;1.00;;;11.70;43.90;;;;;;5050050;28;20214;-74
2022/11/19 04:59:38;;;;;;;2.00;1.20;;;11.60;44.20;;;;;;5050888;28;20675;-74
2022/11/19 05:02:04;;;;;;;2.00;1.10;;;11.60;44.60;;;;;;5039707;28;20193;-75
2022/11/19 05:04:29;;;;;;;2.00;1.10;;;11.90;43.60;;;;;;5046330;28;20230;-75
2022/11/19 05:06:55;;;;;;;2.37;1.53;;;12.00;43.40;;;;;;5049949;28;20215;-75
2022/11/19 05:09:20;;;;;;;2.00;1.10;;;12.00;43.90;;;;;;5050019;28;20199;-75
2022/11/19 05:11:46;;;;;;;2.10;1.27;;;12.00;44.50;;;;;;5044517;28;20647;-72
2022/11/19 05:14:11;;;;;;;2.07;1.20;;;12.20;44.30;;;;;;5049200;28;20648;-72
2022/11/19 05:16:37;;;;;;;2.00;1.10;;;12.30;43.00;;;;;;5045545;28;20195;-72
2022/11/19 05:19:02;;;;;;;1.90;1.03;;;12.00;43.00;;;;;;5048235;28;20212;-74
2022/11/19 05:21:28;;;;;;;1.93;1.10;;;11.90;42.80;;;;;;5047741;28;20596;-75
2022/11/19 05:23:54;;;;;;;1.90;1.10;;;11.70;45.90;;;;;;5047132;28;20223;-75
2022/11/19 05:26:19;;;;;;;2.00;1.10;;;11.80;45.80;;;;;;5049744;28;20226;-75
2022/11/19 05:28:45;;;;;;;2.30;1.30;;;11.90;45.60;;;;;;5045433;28;20631;-75
2022/11/19 05:31:10;;;;;;;1.97;1.10;;;11.90;45.10;;;;;;5051779;28;20180;-75
2022/11/19 05:33:36;;;;;;;1.90;1.10;;;11.70;45.20;;;;;;5050604;28;20181;-75
2022/11/19 05:36:02;;;;;;;2.00;1.10;;;11.50;45.50;;;;;;5051487;28;20235;-75
2022/11/19 05:38:28;;;;;;;2.05;1.20;;;11.40;47.00;;;;;;5045396;28;20651;-75
2022/11/19 05:40:53;;;;;;;2.10;1.30;;;11.30;47.30;;;;;;5053553;28;20256;-75
2022/11/19 05:43:19;;;;;;;2.10;1.20;;;11.40;47.50;;;;;;5051700;28;20191;-75
2022/11/19 05:45:45;;;;;;;1.93;1.20;;;11.50;46.60;;;;;;5050143;28;20211;-75
2022/11/19 05:48:10;;;;;;;1.90;1.10;;;11.60;47.20;;;;;;5054158;28;20294;-75
2022/11/19 05:50:36;;;;;;;1.90;1.03;;;11.40;46.80;;;;;;5054247;28;20651;-75
2022/11/19 05:53:01;;;;;;;1.80;1.10;;;11.30;47.10;;;;;;5045915;28;20189;-85
2022/11/19 05:55:27;;;;;;;2.00;1.20;;;11.90;46.90;;;;;;5040109;28;20203;-84
2022/11/19 05:57:52;;;;;;;2.10;1.23;;;11.80;46.80;;;;;;5054049;28;20195;-84
2022/11/19 06:00:18;;;;;;;1.90;1.10;;;11.60;46.50;;;;;;5053645;28;20266;-84
2022/11/19 06:02:44;;;;;;;1.83;1.10;;;11.60;47.30;;;;;;5042722;28;20186;-84
2022/11/19 06:05:10;;;;;;;1.87;1.07;;;11.80;45.90;;;;;;5051910;28;20236;-81
2022/11/19 06:07:36;;;;;;;1.85;1.10;;;12.00;45.40;;;;;;5050846;28;20568;-82
2022/11/19 06:10:01;;;;;;;1.80;1.00;;;12.30;46.30;;;;;;5050221;28;20197;-81
2022/11/19 06:12:27;;;;;;;3.10;1.77;;;12.10;46.90;;;;;;5046767;28;20192;-77
2022/11/19 06:14:53;;;;;;;1.80;1.10;;;12.20;46.40;;;;;;5052135;28;20199;-77
2022/11/19 06:17:18;;;;;;;1.90;1.10;;;12.20;45.40;;;;;;5049880;28;20223;-74
2022/11/19 06:19:44;;;;;;;1.90;1.10;;;12.60;44.70;;;;;;5049408;28;20237;-73
2022/11/19 06:22:09;;;;;;;1.90;1.10;;;12.30;45.10;;;;;;5048089;28;20176;-74
2022/11/19 06:24:35;;;;;;;1.90;1.10;;;12.20;45.80;;;;;;5052575;28;20180;-74
2022/11/19 06:27:01;;;;;;;2.40;1.40;;;12.10;46.80;;;;;;5053618;28;20205;-74
2022/11/19 06:29:26;;;;;;;1.80;1.00;;;12.00;47.30;;;;;;5053846;28;20168;-74
2022/11/19 06:31:52;;;;;;;1.90;1.10;;;12.10;47.10;;;;;;5053314;28;20687;-74
2022/11/19 06:34:18;;;;;;;1.90;1.20;;;12.00;44.70;;;;;;5043853;28;20206;-74
2022/11/19 06:36:43;;;;;;;3.13;1.57;;;11.90;44.60;;;;;;5033598;28;20587;-74
2022/11/19 06:39:09;;;;;;;1.80;1.10;;;12.00;44.70;;;;;;5044703;28;20263;-73
2022/11/19 06:41:35;;;;;;;1.77;1.00;;;12.10;46.00;;;;;;5047872;28;20675;-73
2022/11/19 06:44:01;;;;;;;1.90;1.13;;;12.50;45.70;;;;;;5046491;28;20267;-74
2022/11/19 06:46:26;;;;;;;1.80;1.10;;;12.20;45.30;;;;;;5048545;28;20452;-74
2022/11/19 06:48:52;;;;;;;1.90;1.20;;;12.20;45.50;;;;;;5046054;28;20240;-74
2022/11/19 06:51:17;;;;;;;1.80;1.00;;;12.10;46.20;;;;;;5035328;28;20661;-74
2022/11/19 06:53:43;;;;;;;2.60;1.70;;;12.10;45.10;;;;;;5052520;28;20180;-74
2022/11/19 06:56:09;;;;;;;1.80;1.10;;;12.00;45.70;;;;;;5050931;28;20257;-74
2022/11/19 06:58:35;;;;;;;1.80;1.13;;;12.00;46.40;;;;;;5053494;28;20247;-73
2022/11/19 07:01:00;;;;;;;1.90;1.20;;;11.80;45.70;;;;;;5051395;28;20180;-73
2022/11/19 07:03:26;;;;;;;1.87;1.10;;;11.70;45.80;;;;;;5051123;28;20183;-74
2022/11/19 07:05:58;;;;;;;2.00;1.30;;;11.70;47.10;;;;;;5050380;28;20441;-74
2022/11/19 07:08:24;;;;;;;1.80;1.10;;;11.90;47.10;;;;;;5046533;28;20199;-74
2022/11/19 07:10:50;;;;;;;1.80;1.10;;;11.90;45.10;;;;;;5049782;28;20195;-77
2022/11/19 07:13:15;;;;;;;1.87;1.20;;;11.00;49.00;;;;;;5034583;28;20192;-77
2022/11/19 07:15:42;;;;;;;1.77;1.07;;;11.60;47.80;;;;;;5034967;28;20199;-77
2022/11/19 07:18:07;;;;;;;1.90;1.10;;;11.80;46.00;;;;;;5052598;28;20202;-77
2022/11/19 07:20:33;;;;;;;2.30;1.30;;;11.70;45.80;;;;;;5051667;28;20172;-76
2022/11/19 07:22:59;;;;;;;1.80;1.10;;;11.40;46.50;;;;;;5035714;28;20184;-77
2022/11/19 07:25:24;;;;;;;1.90;1.10;;;11.30;47.30;;;;;;5036086;28;20234;-77
2022/11/19 07:27:50;;;;;;;1.90;1.10;;;12.00;45.70;;;;;;5046237;28;20246;-77
2022/11/19 07:30:16;;;;;;;2.00;1.20;;;12.00;45.70;;;;;;5050892;28;20661;-77
2022/11/19 07:32:42;;;;;;;1.90;1.20;;;11.80;45.30;;;;;;5038827;28;20180;-77
2022/11/19 07:35:08;;;;;;;1.83;1.10;;;11.60;45.30;;;;;;5035550;28;20459;-77
2022/11/19 07:37:35;;;;;;;1.85;1.10;;;11.50;46.90;;;;;;5045482;28;20686;-76
2022/11/19 07:40:01;;;;;;;2.00;1.20;;;11.10;48.20;;;;;;5043949;28;20198;-76
2022/11/19 07:45:11;;;;;;;1.90;1.20;;;11.80;46.00;;;;;;5051298;28;20222;-77
2022/11/19 07:47:36;;;;;;;1.90;1.10;;;11.70;45.40;;;;;;5044812;28;20195;-76
2022/11/19 07:50:03;;;;;;;1.90;1.10;;;11.60;46.80;;;;;;5051886;28;20203;-76
2022/11/19 07:52:29;;;;;;;1.95;1.20;;;11.90;45.10;;;;;;5043464;28;20198;-76
2022/11/19 07:54:55;;;;;;;1.83;1.10;;;12.10;45.60;;;;;;5049008;28;20211;-77
2022/11/19 07:57:20;;;;;;;1.90;1.20;;;11.30;45.60;;;;;;5050999;28;20562;-77
2022/11/19 07:59:46;;;;;;;2.00;1.20;;;11.20;49.30;;;;;;5049077;28;20176;-76
2022/11/19 08:02:12;;;;;;;1.83;1.00;;;11.60;46.40;;;;;;5046256;28;20177;-76
2022/11/19 08:04:38;;;;;;;2.10;1.20;;;11.40;46.80;;;;;;5040226;28;20179;-76
2022/11/19 08:07:04;;;;;;;1.90;1.10;;;11.30;47.90;;;;;;5044240;28;20215;-76
2022/11/19 08:09:29;;;;;;;2.20;1.20;;;11.60;46.90;;;;;;5046144;28;20269;-76
2022/11/19 08:11:55;;;;;;;2.00;1.10;;;12.00;45.30;;;;;;5051792;28;20226;-76
2022/11/19 08:14:20;;;;;;;1.90;1.10;;;11.70;45.50;;;;;;5051925;28;20554;-77
2022/11/19 08:19:30;;;;;;;2.00;1.10;;;11.90;45.10;;;;;;5039389;28;20181;-77
2022/11/19 08:21:56;;;;;;;1.90;1.10;;;12.00;45.30;;;;;;5040225;28;20584;-77
2022/11/19 08:24:22;;;;;;;1.90;1.10;;;12.40;44.50;;;;;;5044375;28;20183;-77
2022/11/19 08:26:47;;;;;;;1.83;1.10;;;12.30;43.60;;;;;;5042260;28;20277;-78
2022/11/19 08:29:15;;;;;;;1.97;1.20;;;12.60;43.00;;;;;;5048930;28;20187;-77
2022/11/19 08:31:43;;;;;;;2.00;1.20;;;12.60;43.10;;;;;;5040955;28;20445;-75
2022/11/19 08:34:08;;;;;;;2.00;1.20;;;12.70;42.90;;;;;;5037458;28;20200;-74
2022/11/19 08:36:34;;;;;;;1.90;1.07;;;12.70;43.70;;;;;;5039579;28;20199;-74
2022/11/19 08:39:01;;;;;;;1.97;1.10;;;12.70;43.00;;;;;;5042762;28;20177;-78
2022/11/19 08:44:11;;;;;;;2.00;1.13;;;12.90;42.20;;;;;;5044844;28;20185;-75
2022/11/19 08:46:38;;;;;;;2.00;1.10;;;12.90;42.70;;;;;;5046145;28;20234;-75
2022/11/19 08:49:04;;;;;;;2.08;1.20;;;13.00;42.90;;;;;;5049519;28;20186;-74
2022/11/19 08:51:30;;;;;;;2.10;1.10;;;12.60;43.50;;;;;;5047115;28;20202;-73
2022/11/19 08:53:55;;;;;;;2.10;1.10;;;12.70;44.20;;;;;;5044519;28;20263;-76
2022/11/19 08:56:22;;;;;;;2.10;1.10;;;12.80;41.90;;;;;;5043602;28;20211;-74
2022/11/19 08:58:48;;;;;;;2.10;1.10;;;12.90;43.90;;;;;;5049969;28;20180;-74
2022/11/19 09:01:15;;;;;;;2.20;1.10;;;13.10;43.10;;;;;;5035320;28;20470;-75
2022/11/19 09:03:41;;;;;;;2.20;1.10;;;13.10;41.70;;;;;;5046151;28;20506;-74
2022/11/19 09:06:07;;;;;;;2.30;1.20;;;12.70;41.20;;;;;;5042419;28;20188;-73
2022/11/19 09:08:33;;;;;;;2.20;1.10;;;12.40;41.80;;;;;;5042030;28;20180;-76
2022/11/19 09:10:58;;;;;;;2.30;1.20;;;11.60;44.60;;;;;;5042735;28;20438;-76
2022/11/19 09:13:24;;;;;;;2.30;1.10;;;11.80;46.50;;;;;;5043415;28;20476;-75
2022/11/19 09:15:50;;;;;;;2.30;1.10;;;12.40;44.10;;;;;;5046963;28;20687;-76
2022/11/19 09:18:16;;;;;;;2.23;1.10;;;12.60;43.10;;;;;;5041523;28;20196;-76
2022/11/19 09:20:42;;;;;;;2.27;1.10;;;12.30;41.90;;;;;;5047873;28;20498;-76
2022/11/19 09:23:08;;;;;;;2.40;1.20;;;11.30;45.40;;;;;;5048000;28;20469;-76
2022/11/19 09:25:34;;;;;;;2.20;1.10;;;11.50;43.30;;;;;;5047646;28;20469;-76
2022/11/19 09:28:00;;;;;;;2.40;1.20;;;11.10;44.90;;;;;;5053069;28;20454;-76
2022/11/19 09:30:25;;;;;;;2.23;1.10;;;11.10;44.60;;;;;;5054599;28;20414;-76
2022/11/19 09:32:51;;;;;;;2.20;1.00;;;11.30;44.80;;;;;;5054481;28;20183;-76
2022/11/19 09:35:17;;;;;;;2.47;1.20;;;11.20;44.20;;;;;;5052248;28;20204;-76
2022/11/19 09:37:42;;;;;;;2.27;1.10;;;11.40;43.20;;;;;;5054711;28;20196;-76
2022/11/19 09:40:18;;;;;;;2.30;1.10;;;11.10;44.20;;;;;;5054472;28;20428;-76
2022/11/19 09:42:56;;;;;;;2.40;1.20;;;10.90;45.60;;;;;;5049026;28;20545;-76
2022/11/19 09:45:45;;;;;;;2.43;1.20;;;11.50;44.40;;;;;;5054115;28;20897;-76
2022/11/19 09:48:31;;;;;;;2.30;1.10;;;11.90;45.10;;;;;;5054330;28;20430;-76
2022/11/19 09:51:20;;;;;;;2.30;1.10;;;11.60;44.00;;;;;;5053803;28;20450;-76
2022/11/19 09:53:56;;;;;;;2.30;1.10;;;12.00;43.00;;;;;;5048001;28;20175;-76
2022/11/19 09:56:43;;;;;;;2.33;1.13;;;12.50;40.20;;;;;;5053965;28;20457;-76
2022/11/19 09:59:26;;;;;;;2.43;1.30;;;12.60;41.40;;;;;;5054037;28;20761;-76
2022/11/19 10:01:53;;;;;;;2.40;1.10;;;12.80;40.20;;;;;;5052959;28;20511;-76
2022/11/19 10:04:22;;;;;;;2.60;1.20;;;13.40;40.70;;;;;;5053663;28;20863;-76
2022/11/19 10:06:59;;;;;;;2.40;1.10;;;12.80;39.30;;;;;;5053764;28;20418;-76
2022/11/19 10:09:43;;;;;;;2.50;1.20;;;11.50;42.50;;;;;;5053735;28;20437;-76
2022/11/19 10:12:08;;;;;;;2.50;1.20;;;11.90;42.90;;;;;;5040925;28;20458;-76
2022/11/19 10:15:00;;;;;;;2.57;1.20;;;12.30;44.10;;;;;;5038016;28;20454;-76
2022/11/19 10:17:42;;;;;;;2.50;1.10;;;12.50;41.40;;;;;;5036582;28;20258;-76
2022/11/19 10:20:07;;;;;;;2.60;1.20;;;12.10;40.70;;;;;;5039241;28;20435;-76
2022/11/19 10:22:37;;;;;;;2.90;1.20;;;12.20;42.10;;;;;;5039707;28;20443;-76
2022/11/19 10:25:21;;;;;;;2.50;1.10;;;12.10;41.80;;;;;;5045174;28;20210;-76
2022/11/19 10:27:50;;;;;;;2.50;1.10;;;12.10;43.30;;;;;;5049977;28;20527;-76
2022/11/19 10:30:22;;;;;;;2.60;1.27;;;12.60;42.60;;;;;;5051011;28;20469;-76
2022/11/19 10:33:01;;;;;;;2.50;1.10;;;13.10;40.80;;;;;;5044398;28;20443;-76
2022/11/19 10:35:46;;;;;;;2.80;1.47;;;13.10;38.00;;;;;;5044378;28;21021;-76
2022/11/19 10:38:32;;;;;;;9.97;2.20;;;12.80;38.50;;;;;;5038497;28;20455;-76
2022/11/19 10:41:13;;;;;;;2.43;1.13;;;12.50;39.30;;;;;;5037308;28;20437;-76
2022/11/19 10:43:47;;;;;;;2.50;1.10;;;11.80;42.40;;;;;;5039790;28;20431;-76
2022/11/19 10:46:15;;;;;;;2.50;1.10;;;11.40;46.40;;;;;;5049475;28;20422;-75
2022/11/19 10:48:57;;;;;;;2.40;1.10;;;11.90;45.00;;;;;;5047854;28;20450;-75
2022/11/19 10:51:38;;;;;;;2.50;1.50;;;12.00;45.30;;;;;;5051582;28;20438;-75
2022/11/19 10:54:20;;;;;;;2.80;1.50;;;12.20;44.10;;;;;;5039429;28;20430;-75
2022/11/19 10:56:46;;;;;;;2.40;1.10;;;11.80;45.00;;;;;;5045082;28;20953;-76
2022/11/19 10:59:24;;;;;;;2.30;1.10;;;12.00;43.10;;;;;;5050420;28;20460;-76
2022/11/19 11:01:56;;;;;;;2.27;1.10;;;12.00;44.50;;;;;;5052823;28;20414;-76
2022/11/19 11:04:24;;;;;;;2.40;1.10;;;12.40;44.30;;;;;;5050191;28;20492;-76
2022/11/19 11:06:57;;;;;;;2.60;1.20;;;12.10;45.60;;;;;;5052479;28;20796;-76
2022/11/19 11:09:37;;;;;;;2.43;1.13;;;11.80;43.80;;;;;;5051103;28;20445;-76
2022/11/19 11:15:06;;;;;;;2.40;1.00;;;11.80;44.90;;;;;;5047686;28;20465;-76
2022/11/19 11:17:35;;;;;;;2.60;1.20;;;12.10;45.60;;;;;;5038274;28;20450;-74
2022/11/19 11:20:02;;;;;;;2.50;1.10;;;13.00;44.00;;;;;;5052344;28;20422;-74
2022/11/19 11:22:29;;;;;;;2.50;1.10;;;13.40;41.20;;;;;;5048107;28;20430;-74
2022/11/19 11:24:55;;;;;;;2.70;1.30;;;14.00;41.00;;;;;;5052210;28;20419;-74
2022/11/19 11:27:27;;;;;;;2.67;1.13;;;13.80;38.40;;;;;;5042780;28;20455;-74
2022/11/19 11:30:11;;;;;;;2.80;1.30;;;13.60;38.80;;;;;;5047472;28;20944;-74
2022/11/19 11:32:37;;;;;;;2.83;1.23;;;13.90;38.60;;;;;;5048668;28;20445;-74
2022/11/19 11:35:04;;;;;;;2.70;1.17;;;13.90;37.20;;;;;;5049632;28;20442;-74
2022/11/19 11:37:31;;;;;;;2.70;1.10;;;13.60;38.40;;;;;;5051490;28;20442;-74
2022/11/19 11:39:57;;;;;;;2.80;1.20;;;13.40;39.70;;;;;;5052132;28;20493;-74
2022/11/19 11:42:27;;;;;;;2.70;1.10;;;13.70;40.10;;;;;;5051918;28;20499;-74
2022/11/19 11:44:59;;;;;;;2.80;1.20;;;13.40;40.40;;;;;;5041315;28;20448;-74
2022/11/19 11:47:33;;;;;;;2.70;1.07;;;13.50;39.80;;;;;;5040052;28;20451;-75
2022/11/19 11:50:11;;;;;;;2.77;1.10;;;13.50;39.40;;;;;;5047712;28;20516;-75
2022/11/19 11:52:42;;;;;;;2.80;1.10;;;13.70;37.60;;;;;;5031880;28;20785;-75
2022/11/19 11:55:23;;;;;;;2.83;1.10;;;12.70;40.40;;;;;;5051289;28;20529;-75
2022/11/19 11:57:59;;;;;;;2.90;1.20;;;12.60;42.90;;;;;;5051848;28;20483;-75
2022/11/19 12:00:32;;;;;;;3.07;1.37;;;11.90;41.80;;;;;;5051697;28;20766;-76
2022/11/19 12:03:06;;;;;;;2.80;1.10;;;12.70;40.90;;;;;;5050834;28;20411;-76
2022/11/19 12:05:50;;;;;;;3.00;1.37;;;13.30;41.10;;;;;;5042046;28;20491;-76
2022/11/19 12:08:38;;;;;;;3.00;1.30;;;12.90;39.90;;;;;;5049561;28;20470;-75
2022/11/19 12:11:16;;;;;;;2.77;1.10;;;13.50;39.20;;;;;;5051597;28;20418;-76
2022/11/19 12:14:03;;;;;;;2.90;1.30;;;13.40;37.70;;;;;;5051284;28;20516;-79
2022/11/19 12:16:48;;;;;;;2.77;1.10;;;13.10;38.20;;;;;;5049934;28;20844;-76
2022/11/19 12:19:37;;;;;;;2.90;1.30;;;13.20;38.40;;;;;;5051361;28;20472;-76
2022/11/19 12:22:08;;;;;;;2.90;1.20;;;12.50;39.10;;;;;;5051218;28;20715;-77
2022/11/19 12:24:43;;;;;;;3.00;1.30;;;13.00;38.30;;;;;;5049134;28;20410;-77
2022/11/19 12:27:28;;;;;;;2.80;1.10;;;13.40;37.60;;;;;;5050725;28;20936;-77
2022/11/19 12:30:02;;;;;;;2.90;1.10;;;13.50;37.70;;;;;;5050591;28;20437;-77
2022/11/19 12:32:30;;;;;;;2.93;1.20;;;13.90;37.40;;;;;;5050988;28;20414;-77
2022/11/19 12:35:15;;;;;;;3.00;1.20;;;14.00;38.30;;;;;;5048920;28;20538;-77
2022/11/19 12:37:56;;;;;;;2.93;1.10;;;13.70;37.20;;;;;;5043854;28;20962;-77
2022/11/19 12:40:51;;;;;;;3.10;1.20;;;13.70;37.20;;;;;;5050183;28;20532;-78
2022/11/19 12:43:38;;;;;;;3.00;1.20;;;13.50;37.00;;;;;;5005902;28;20451;-77
2022/11/19 12:46:34;;;;;;;3.00;1.23;;;13.20;37.90;;;;;;4992224;28;20464;-77
2022/11/19 12:49:31;;;;;;;2.90;1.17;;;13.10;37.80;;;;;;4987891;28;20527;-77
2022/11/19 12:52:27;;;;;;;2.90;1.10;;;13.60;37.60;;;;;;5007080;28;20444;-77
2022/11/19 12:55:32;;;;;;;2.97;1.10;;;13.30;38.00;;;;;;4996441;28;20465;-76
2022/11/19 12:58:20;;;;;;;3.10;1.47;;;13.80;36.30;;;;;;4964404;28;20454;-78
2022/11/19 13:01:01;;;;;;;3.10;1.30;;;13.80;36.80;;;;;;4968501;28;20441;-77
2022/11/19 13:03:53;;;;;;;10.03;3.07;;;14.10;36.50;;;;;;4953027;28;20440;-77
2022/11/19 13:06:45;;;;;;;3.10;1.40;;;13.40;38.20;;;;;;4969573;28;20500;-76
2022/11/19 13:09:38;;;;;;;4.63;1.80;;;13.40;38.50;;;;;;4969197;28;20880;-76
2022/11/19 13:12:08;;;;;;;2.90;1.20;;;13.60;37.90;;;;;;4966278;28;20462;-76
2022/11/19 13:15:01;;;;;;;3.00;1.20;;;12.70;40.00;;;;;;4968083;28;20977;-77
2022/11/19 13:17:49;;;;;;;3.10;1.30;;;12.80;40.60;;;;;;4968761;28;20450;-76
2022/11/19 13:20:22;;;;;;;4.10;1.80;;;12.50;41.40;;;;;;4982156;28;20441;-76
2022/11/19 13:22:50;;;;;;;2.90;1.20;;;12.10;43.10;;;;;;4989253;28;21052;-77
2022/11/19 13:25:26;;;;;;;2.87;1.20;;;12.10;43.00;;;;;;4985511;28;20445;-76